createdAt,value
2019-04-01T00:02:13.457Z,3.13
2019-04-01T00:04:42.609Z,2.13
2019-04-01T00:07:11.761Z,2.00
2019-04-01T00:09:40.996Z,2.17
2019-04-01T00:12:10.129Z,2.30
2019-04-01T00:14:39.276Z,1.93
2019-04-01T00:17:08.449Z,2.20
2019-04-01T00:19:37.597Z,2.20
2019-04-01T00:22:06.755Z,2.30
2019-04-01T00:24:36.293Z,2.10
2019-04-01T00:27:05.472Z,2.40
2019-04-01T00:29:34.669Z,2.20
2019-04-01T00:32:03.800Z,2.10
2019-04-01T00:34:32.969Z,1.93
2019-04-01T00:37:02.098Z,3.03
2019-04-01T00:39:31.291Z,2.10
2019-04-01T00:42:11.769Z,2.33
2019-04-01T00:44:40.966Z,2.60
2019-04-01T00:47:10.098Z,2.10
2019-04-01T00:49:39.248Z,1.83
2019-04-01T00:52:08.441Z,2.47
2019-04-01T00:54:56.038Z,2.20
2019-04-01T00:57:25.532Z,1.83
2019-04-01T00:59:54.777Z,2.30
2019-04-01T01:02:24.104Z,2.23
2019-04-01T01:04:55.133Z,2.30
2019-04-01T01:07:24.306Z,2.13
2019-04-01T01:09:53.744Z,2.30
2019-04-01T01:12:22.901Z,2.27
2019-04-01T01:14:52.208Z,2.30
2019-04-01T01:17:21.495Z,2.33
2019-04-01T01:19:50.649Z,2.00
2019-04-01T01:22:19.809Z,2.17
2019-04-01T01:24:49.030Z,2.17
2019-04-01T01:27:18.212Z,2.20
2019-04-01T01:29:47.345Z,2.23
2019-04-01T01:32:17.347Z,2.40
2019-04-01T01:34:46.529Z,2.87
2019-04-01T01:37:15.674Z,2.70
2019-04-01T01:39:44.820Z,2.30
2019-04-01T01:42:14.005Z,2.07
2019-04-01T01:44:43.151Z,2.27
2019-04-01T01:47:12.315Z,2.43
2019-04-01T01:49:41.460Z,2.67
2019-04-01T01:52:10.657Z,2.17
2019-04-01T01:54:40.057Z,2.07
2019-04-01T01:57:11.005Z,2.43
2019-04-01T01:59:41.189Z,2.40
2019-04-01T02:02:10.349Z,2.20
2019-04-01T02:04:39.768Z,2.10
2019-04-01T02:07:08.903Z,2.30
2019-04-01T02:09:38.046Z,1.77
2019-04-01T02:12:07.776Z,2.20
2019-04-01T02:14:36.919Z,2.47
2019-04-01T02:17:06.065Z,2.00
2019-04-01T02:19:38.145Z,2.27
2019-04-01T02:22:07.400Z,2.30
2019-04-01T02:24:36.540Z,1.90
2019-04-01T02:27:05.817Z,1.90
2019-04-01T02:29:36.116Z,2.17
2019-04-01T02:32:05.306Z,2.47
2019-04-01T02:34:36.282Z,2.47
2019-04-01T02:37:05.552Z,2.20
2019-04-01T02:39:35.373Z,2.30
2019-04-01T02:42:04.758Z,2.60
2019-04-01T02:44:34.026Z,2.33
2019-04-01T02:47:03.603Z,1.90
2019-04-01T02:49:33.990Z,2.30
2019-04-01T02:52:03.131Z,2.17
2019-04-01T02:54:32.829Z,2.30
2019-04-01T02:57:02.203Z,2.10
2019-04-01T02:59:31.470Z,1.80
2019-04-01T03:02:00.620Z,1.90
2019-04-01T03:04:29.754Z,2.53
2019-04-01T03:06:58.964Z,2.20
2019-04-01T03:09:28.087Z,2.07
2019-04-01T03:11:57.267Z,2.17
2019-04-01T03:14:26.405Z,1.97
2019-04-01T03:16:55.622Z,2.17
2019-04-01T03:19:24.777Z,2.63
2019-04-01T03:21:54.025Z,2.17
2019-04-01T03:24:23.312Z,2.00
2019-04-01T03:26:52.638Z,2.10
2019-04-01T03:29:21.818Z,2.50
2019-04-01T03:31:52.542Z,2.20
2019-04-01T03:34:21.782Z,2.30
2019-04-01T03:36:50.961Z,2.43
2019-04-01T03:39:21.649Z,2.10
2019-04-01T03:41:50.968Z,2.50
2019-04-01T03:44:20.174Z,2.30
2019-04-01T03:46:49.356Z,2.43
2019-04-01T03:49:18.636Z,2.20
2019-04-01T03:51:47.907Z,2.17
2019-04-01T03:54:17.225Z,2.50
2019-04-01T03:56:46.519Z,2.20
2019-04-01T03:59:15.893Z,2.00
2019-04-01T04:01:45.068Z,2.07
2019-04-01T04:04:14.233Z,2.30
2019-04-01T04:06:43.376Z,2.47
2019-04-01T04:09:12.522Z,2.47
2019-04-01T04:11:41.669Z,2.20
2019-04-01T04:14:10.824Z,2.40
2019-04-01T04:16:40.317Z,2.23
2019-04-01T04:19:09.587Z,2.17
2019-04-01T04:21:39.849Z,2.43
2019-04-01T04:24:09.030Z,2.30
2019-04-01T04:26:38.160Z,2.23
2019-04-01T04:29:07.527Z,2.57
2019-04-01T04:31:36.758Z,2.27
2019-04-01T04:34:07.827Z,2.70
2019-04-01T04:36:37.010Z,2.77
2019-04-01T04:39:07.211Z,2.63
2019-04-01T04:41:36.485Z,3.20
2019-04-01T04:44:05.674Z,2.53
2019-04-01T04:46:34.803Z,2.67
2019-04-01T04:49:05.417Z,2.60
2019-04-01T04:51:34.562Z,2.70
2019-04-01T04:54:03.789Z,2.70
2019-04-01T04:56:32.992Z,2.93
2019-04-01T04:59:02.275Z,2.70
2019-04-01T05:01:31.575Z,2.50
2019-04-01T05:04:00.729Z,2.50
2019-04-01T05:06:29.886Z,2.50
2019-04-01T05:08:59.045Z,2.57
2019-04-01T05:11:28.890Z,2.33
2019-04-01T05:13:59.278Z,2.80
2019-04-01T05:16:28.429Z,3.57
2019-04-01T05:18:58.615Z,2.80
2019-04-01T05:21:29.199Z,3.13
2019-04-01T05:23:58.792Z,3.00
2019-04-01T05:26:28.042Z,3.50
2019-04-01T05:28:58.657Z,3.00
2019-04-01T05:31:28.645Z,3.30
2019-04-01T05:33:59.425Z,2.80
2019-04-01T05:36:28.735Z,3.00
2019-04-01T05:38:58.344Z,2.43
2019-04-01T05:41:27.484Z,2.53
2019-04-01T05:43:56.669Z,2.90
2019-04-01T05:46:25.997Z,2.87
2019-04-01T05:48:55.142Z,3.17
2019-04-01T05:51:24.334Z,3.50
2019-04-01T05:53:53.458Z,2.87
2019-04-01T05:56:22.607Z,3.13
2019-04-01T05:58:51.785Z,3.00
2019-04-01T06:01:28.743Z,3.00
2019-04-01T06:03:57.920Z,2.80
2019-04-01T06:06:27.196Z,2.93
2019-04-01T06:08:56.385Z,2.60
2019-04-01T06:11:25.572Z,2.33
2019-04-01T06:13:54.715Z,2.50
2019-04-01T06:16:23.857Z,2.80
2019-04-01T06:18:55.111Z,2.83
2019-04-01T06:21:24.262Z,3.20
2019-04-01T06:23:53.712Z,2.50
2019-04-01T06:26:22.895Z,2.50
2019-04-01T06:28:52.079Z,2.97
2019-04-01T06:31:23.082Z,2.70
2019-04-01T06:33:52.229Z,2.87
2019-04-01T06:36:21.655Z,2.90
2019-04-01T06:38:50.875Z,2.67
2019-04-01T06:41:20.056Z,2.83
2019-04-01T06:43:49.574Z,2.40
2019-04-01T06:46:18.826Z,3.03
2019-04-01T06:48:48.067Z,2.47
2019-04-01T06:51:17.257Z,2.83
2019-04-01T06:53:46.409Z,2.80
2019-04-01T06:56:15.617Z,2.60
2019-04-01T06:58:44.756Z,2.67
2019-04-01T07:01:14.045Z,2.80
2019-04-01T07:03:43.341Z,2.80
2019-04-01T07:06:12.593Z,2.40
2019-04-01T07:08:42.090Z,2.70
2019-04-01T07:11:11.252Z,2.97
2019-04-01T07:13:40.558Z,2.70
2019-04-01T07:16:15.649Z,2.57
2019-04-01T07:18:40.694Z,2.47
2019-04-01T07:21:09.873Z,2.90
2019-04-01T07:23:39.023Z,2.57
2019-04-01T07:26:08.198Z,2.20
2019-04-01T07:28:37.485Z,2.40
2019-04-01T07:31:06.779Z,2.00
2019-04-01T07:33:36.030Z,2.57
2019-04-01T07:36:05.197Z,2.43
2019-04-01T07:38:34.384Z,3.30
2019-04-01T07:41:05.869Z,3.22
2019-04-01T07:43:35.100Z,2.80
2019-04-01T07:46:07.888Z,5.67
2019-04-01T07:48:35.179Z,2.60
2019-04-01T07:51:07.110Z,2.80
2019-04-01T07:53:36.254Z,3.37
2019-04-01T07:56:05.439Z,3.00
2019-04-01T07:58:34.619Z,2.40
2019-04-01T08:01:04.994Z,2.60
2019-04-01T08:03:34.856Z,2.40
2019-04-01T08:06:04.040Z,2.60
2019-04-01T08:08:33.276Z,2.20
2019-04-01T08:11:02.497Z,2.40
2019-04-01T08:13:31.691Z,2.73
2019-04-01T08:16:01.133Z,2.40
2019-04-01T08:18:33.760Z,2.20
2019-04-01T08:21:01.783Z,2.50
2019-04-01T08:23:31.039Z,2.30
2019-04-01T08:26:00.233Z,2.87
2019-04-01T08:28:29.368Z,2.90
2019-04-01T08:30:58.559Z,2.73
2019-04-01T08:33:27.718Z,2.27
2019-04-01T08:35:56.858Z,2.40
2019-04-01T08:38:26.119Z,2.63
2019-04-01T08:40:55.287Z,3.10
2019-04-01T08:43:24.407Z,2.87
2019-04-01T08:45:53.594Z,7.20
2019-04-01T08:48:22.764Z,3.40
2019-04-01T08:50:51.986Z,3.27
2019-04-01T08:53:21.194Z,2.70
2019-04-01T08:55:50.329Z,2.80
2019-04-01T08:58:20.364Z,3.02
2019-04-01T09:00:49.531Z,3.00
2019-04-01T09:03:18.778Z,3.17
2019-04-01T09:05:47.934Z,3.40
2019-04-01T09:08:17.744Z,3.10
2019-04-01T09:10:47.282Z,3.77
2019-04-01T09:13:16.715Z,3.27
2019-04-01T09:15:45.888Z,2.90
2019-04-01T09:18:15.071Z,3.10
2019-04-01T09:20:45.229Z,3.17
2019-04-01T09:23:14.396Z,2.90
2019-04-01T09:25:43.687Z,2.83
2019-04-01T09:28:12.827Z,2.93
2019-04-01T09:30:42.045Z,2.93
2019-04-01T09:33:11.233Z,2.67
2019-04-01T09:35:41.036Z,3.20
2019-04-01T09:38:10.454Z,3.30
2019-04-01T09:40:39.632Z,3.13
2019-04-01T09:43:08.891Z,2.80
2019-04-01T09:45:38.124Z,2.50
2019-04-01T09:48:07.375Z,2.77
2019-04-01T09:50:36.519Z,3.23
2019-04-01T09:53:05.881Z,2.70
2019-04-01T09:55:35.166Z,3.00
2019-04-01T09:58:04.369Z,2.70
2019-04-01T10:00:34.219Z,2.47
2019-04-01T10:03:03.446Z,3.00
2019-04-01T10:05:32.737Z,2.93
2019-04-01T10:08:03.016Z,2.63
2019-04-01T10:10:32.256Z,2.70
2019-04-01T10:13:02.610Z,2.63
2019-04-01T10:15:31.836Z,2.77
2019-04-01T10:18:00.996Z,2.80
2019-04-01T10:20:30.145Z,2.87
2019-04-01T10:22:59.436Z,2.60
2019-04-01T10:25:28.650Z,2.50
2019-04-01T10:27:58.371Z,2.83
2019-04-01T10:30:27.789Z,3.07
2019-04-01T10:32:57.063Z,2.70
2019-04-01T10:35:26.249Z,2.50
2019-04-01T10:37:55.437Z,2.87
2019-04-01T10:40:26.177Z,2.70
2019-04-01T10:42:56.898Z,2.97
2019-04-01T10:45:26.087Z,2.60
2019-04-01T10:47:55.336Z,2.60
2019-04-01T10:50:24.603Z,2.57
2019-04-01T10:52:53.900Z,2.73
2019-04-01T10:55:23.312Z,2.70
2019-04-01T10:57:54.121Z,2.40
2019-04-01T11:00:23.675Z,2.37
2019-04-01T11:02:52.916Z,2.60
2019-04-01T11:05:22.121Z,2.33
2019-04-01T11:07:51.400Z,2.50
2019-04-01T11:10:20.673Z,2.30
2019-04-01T11:12:49.924Z,2.40
2019-04-01T11:15:20.378Z,2.40
2019-04-01T11:17:52.527Z,2.97
2019-04-01T11:20:21.946Z,2.77
2019-04-01T11:22:51.145Z,2.53
2019-04-01T11:25:20.332Z,2.70
2019-04-01T11:27:49.568Z,2.47
2019-04-01T11:30:20.122Z,2.97
2019-04-01T11:32:49.325Z,3.13
2019-04-01T11:35:18.804Z,2.80
2019-04-01T11:37:47.964Z,2.70
2019-04-01T11:40:17.320Z,3.20
2019-04-01T11:42:47.150Z,3.00
2019-04-01T11:45:16.269Z,2.57
2019-04-01T11:47:45.528Z,3.22
2019-04-01T11:50:14.947Z,3.40
2019-04-01T11:52:45.393Z,3.20
2019-04-01T11:55:15.642Z,3.30
2019-04-01T11:57:44.920Z,2.40
2019-04-01T12:00:17.747Z,3.23
2019-04-01T12:02:46.953Z,2.50
2019-04-01T12:05:17.660Z,2.70
2019-04-01T12:07:46.916Z,2.80
2019-04-01T12:10:17.978Z,3.57
2019-04-01T12:12:47.177Z,3.33
2019-04-01T12:15:16.339Z,3.10
2019-04-01T12:17:45.519Z,2.93
2019-04-01T12:20:14.789Z,2.80
2019-04-01T12:22:45.941Z,2.90
2019-04-01T12:25:14.942Z,2.90
2019-04-01T12:27:45.116Z,2.50
2019-04-01T12:30:14.668Z,3.00
2019-04-01T12:32:43.998Z,3.00
2019-04-01T12:35:13.958Z,2.93
2019-04-01T12:37:43.115Z,3.58
2019-04-01T12:40:12.726Z,3.42
2019-04-01T12:42:42.013Z,3.33
2019-04-01T12:45:11.344Z,3.37
2019-04-01T12:47:43.151Z,3.60
2019-04-01T12:50:11.616Z,3.47
2019-04-01T12:52:40.772Z,3.30
2019-04-01T12:55:09.943Z,3.00
2019-04-01T12:57:40.576Z,2.97
2019-04-01T13:00:12.740Z,3.07
2019-04-01T13:02:42.020Z,3.10
2019-04-01T13:05:11.216Z,3.10
2019-04-01T13:07:40.408Z,3.62
2019-04-01T13:10:09.931Z,3.45
2019-04-01T13:12:40.148Z,3.42
2019-04-01T13:15:09.486Z,4.03
2019-04-01T13:17:38.657Z,3.13
2019-04-01T13:20:08.261Z,2.93
2019-04-01T13:22:38.167Z,3.13
2019-04-01T13:25:09.065Z,2.93
2019-04-01T13:27:38.244Z,3.13
2019-04-01T13:30:08.346Z,2.83
2019-04-01T13:32:37.523Z,2.60
2019-04-01T13:35:06.788Z,3.00
2019-04-01T13:37:36.049Z,3.13
2019-04-01T13:40:05.596Z,3.50
2019-04-01T13:42:36.268Z,2.97
2019-04-01T13:45:05.703Z,3.10
2019-04-01T13:47:34.974Z,3.13
2019-04-01T13:50:04.653Z,3.00
2019-04-01T13:52:35.430Z,3.37
2019-04-01T13:55:05.040Z,3.23
2019-04-01T13:57:35.219Z,4.10
2019-04-01T14:00:05.637Z,3.40
2019-04-01T14:02:34.791Z,3.50
2019-04-01T14:05:05.896Z,2.77
2019-04-01T14:07:35.030Z,3.30
2019-04-01T14:10:04.751Z,3.43
2019-04-01T14:12:33.921Z,3.23
2019-04-01T14:15:03.298Z,3.00
2019-04-01T14:17:32.441Z,3.27
2019-04-01T14:20:01.595Z,3.30
2019-04-01T14:22:30.895Z,3.17
2019-04-01T14:25:01.872Z,3.27
2019-04-01T14:27:32.862Z,3.27
2019-04-01T14:30:02.111Z,3.90
2019-04-01T14:32:31.330Z,3.40
2019-04-01T14:35:00.641Z,3.10
2019-04-01T14:37:30.226Z,3.20
2019-04-01T14:39:59.375Z,3.20
2019-04-01T14:42:28.620Z,3.40
2019-04-01T14:45:02.700Z,3.40
2019-04-01T14:47:32.668Z,3.43
2019-04-01T14:50:02.848Z,3.30
2019-04-01T14:52:33.076Z,3.20
2019-04-01T14:55:02.668Z,3.13
2019-04-01T14:57:32.026Z,3.23
2019-04-01T15:00:02.126Z,3.03
2019-04-01T15:02:31.585Z,3.40
2019-04-01T15:05:04.870Z,3.50
2019-04-01T15:07:33.910Z,3.10
2019-04-01T15:10:03.076Z,3.13
2019-04-01T15:12:32.267Z,2.87
2019-04-01T15:15:01.412Z,3.33
2019-04-01T15:17:30.618Z,3.20
2019-04-01T15:19:59.760Z,3.10
2019-04-01T15:22:28.946Z,3.60
2019-04-01T15:24:58.820Z,3.30
2019-04-01T15:27:28.169Z,3.00
2019-04-01T15:29:58.238Z,3.50
2019-04-01T15:32:27.461Z,3.47
2019-04-01T15:34:56.603Z,3.23
2019-04-01T15:37:25.764Z,3.47
2019-04-01T15:39:54.951Z,3.30
2019-04-01T15:42:24.187Z,3.13
2019-04-01T15:44:53.351Z,2.97
2019-04-01T15:47:22.537Z,3.50
2019-04-01T15:49:51.821Z,3.70
2019-04-01T15:52:22.508Z,3.17
2019-04-01T15:54:51.714Z,3.63
2019-04-01T15:57:20.966Z,3.13
2019-04-01T15:59:50.228Z,3.10
2019-04-01T16:02:19.452Z,3.57
2019-04-01T16:04:48.815Z,4.07
2019-04-01T16:07:22.414Z,3.10
2019-04-01T16:09:51.149Z,3.20
2019-04-01T16:12:23.254Z,3.43
2019-04-01T16:14:52.496Z,2.97
2019-04-01T16:17:21.762Z,3.10
2019-04-01T16:19:51.050Z,3.53
2019-04-01T16:22:21.894Z,3.30
2019-04-01T16:24:51.232Z,3.30
2019-04-01T16:27:20.498Z,4.13
2019-04-01T16:29:49.700Z,9.50
2019-04-01T16:32:18.887Z,3.87
2019-04-01T16:34:48.147Z,3.37
2019-04-01T16:37:17.294Z,3.50
2019-04-01T16:39:46.709Z,3.93
2019-04-01T16:42:15.871Z,3.70
2019-04-01T16:44:46.163Z,3.33
2019-04-01T16:47:15.323Z,3.30
2019-04-01T16:49:44.527Z,3.60
2019-04-01T16:52:15.389Z,3.57
2019-04-01T16:54:56.090Z,4.07
2019-04-01T16:57:25.410Z,4.03
2019-04-01T16:59:54.580Z,4.37
2019-04-01T17:02:23.931Z,3.50
2019-04-01T17:04:53.083Z,3.63
2019-04-01T17:07:22.244Z,3.83
2019-04-01T17:09:51.435Z,3.40
2019-04-01T17:12:20.580Z,4.20
2019-04-01T17:14:49.798Z,4.57
2019-04-01T17:17:19.084Z,3.93
2019-04-01T17:19:48.590Z,3.90
2019-04-01T17:22:17.766Z,3.47
2019-04-01T17:24:47.041Z,3.83
2019-04-01T17:27:16.343Z,3.80
2019-04-01T17:29:46.502Z,3.37
2019-04-01T17:32:17.724Z,3.63
2019-04-01T17:34:46.969Z,3.63
2019-04-01T17:37:16.245Z,3.73
2019-04-01T17:39:45.464Z,4.23
2019-04-01T17:42:14.879Z,3.80
2019-04-01T17:44:44.092Z,4.70
2019-04-01T17:47:13.388Z,3.80
2019-04-01T17:49:42.744Z,4.00
2019-04-01T17:52:12.101Z,3.53
2019-04-01T17:54:41.297Z,3.53
2019-04-01T17:57:10.620Z,3.97
2019-04-01T17:59:39.964Z,4.13
2019-04-01T18:02:13.289Z,3.90
2019-04-01T18:04:42.514Z,3.60
2019-04-01T18:07:11.772Z,3.70
2019-04-01T18:09:41.051Z,3.70
2019-04-01T18:12:10.385Z,3.20
2019-04-01T18:14:39.557Z,3.40
2019-04-01T18:17:08.772Z,3.30
2019-04-01T18:19:38.193Z,3.27
2019-04-01T18:22:09.980Z,3.17
2019-04-01T18:24:39.233Z,3.17
2019-04-01T18:27:08.454Z,3.43
2019-04-01T18:29:38.109Z,3.17
2019-04-01T18:32:07.509Z,3.57
2019-04-01T18:34:36.935Z,3.30
2019-04-01T18:37:06.442Z,3.70
2019-04-01T18:39:47.608Z,3.30
2019-04-01T18:42:06.897Z,3.37
2019-04-01T18:44:36.198Z,3.67
2019-04-01T18:47:05.658Z,3.30
2019-04-01T18:49:35.087Z,3.33
2019-04-01T18:52:04.299Z,3.20
2019-04-01T18:54:34.103Z,3.13
2019-04-01T18:57:03.853Z,3.57
2019-04-01T18:59:33.298Z,3.50
2019-04-01T19:02:02.647Z,3.30
2019-04-01T19:04:34.186Z,3.40
2019-04-01T19:07:04.488Z,3.43
2019-04-01T19:09:34.083Z,3.17
2019-04-01T19:12:04.619Z,3.90
2019-04-01T19:14:34.062Z,3.53
2019-04-01T19:17:03.372Z,3.80
2019-04-01T19:19:32.693Z,3.20
2019-04-01T19:22:02.471Z,3.63
2019-04-01T19:24:31.820Z,3.40
2019-04-01T19:27:01.080Z,3.30
2019-04-01T19:29:31.317Z,3.70
2019-04-01T19:32:00.721Z,3.43
2019-04-01T19:34:29.939Z,3.80
2019-04-01T19:37:01.460Z,3.47
2019-04-01T19:39:30.826Z,3.77
2019-04-01T19:42:00.495Z,4.80
2019-04-01T19:44:29.952Z,7.37
2019-04-01T19:46:59.276Z,6.53
2019-04-01T19:49:29.033Z,7.67
2019-04-01T19:51:59.274Z,13.13
2019-04-01T19:54:32.757Z,12.53
2019-04-01T19:56:59.820Z,9.43
2019-04-01T19:59:29.561Z,5.80
2019-04-01T20:01:58.929Z,5.43
2019-04-01T20:04:28.117Z,4.07
2019-04-01T20:06:58.984Z,3.70
2019-04-01T20:09:28.408Z,2.90
2019-04-01T20:11:58.421Z,3.67
2019-04-01T20:14:27.833Z,2.90
2019-04-01T20:16:57.181Z,3.50
2019-04-01T20:19:26.523Z,3.40
2019-04-01T20:21:57.212Z,3.30
2019-04-01T20:24:26.769Z,3.20
2019-04-01T20:26:56.026Z,3.50
2019-04-01T20:29:25.204Z,3.50
2019-04-01T20:31:56.175Z,3.50
2019-04-01T20:34:25.995Z,3.53
2019-04-01T20:36:55.200Z,3.27
2019-04-01T20:39:26.363Z,3.60
2019-04-01T20:41:57.207Z,3.57
2019-04-01T20:44:28.525Z,3.43
2019-04-01T20:46:57.794Z,3.50
2019-04-01T20:49:27.012Z,3.50
2019-04-01T20:51:56.241Z,3.53
2019-04-01T20:54:26.965Z,4.03
2019-04-01T20:56:56.256Z,3.43
2019-04-01T20:59:25.506Z,3.20
2019-04-01T21:01:54.699Z,3.20
2019-04-01T21:04:23.899Z,3.77
2019-04-01T21:06:53.098Z,3.40
2019-04-01T21:09:23.149Z,3.70
2019-04-01T21:11:52.454Z,3.57
2019-04-01T21:14:22.608Z,3.50
2019-04-01T21:16:52.019Z,3.27
2019-04-01T21:19:22.348Z,3.20
2019-04-01T21:21:51.657Z,3.03
2019-04-01T21:24:20.808Z,3.37
2019-04-01T21:26:49.953Z,3.30
2019-04-01T21:29:19.153Z,3.37
2019-04-01T21:31:48.560Z,3.27
2019-04-01T21:34:17.886Z,3.20
2019-04-01T21:36:47.026Z,3.60
2019-04-01T21:39:16.310Z,3.60
2019-04-01T21:41:45.481Z,3.40
2019-04-01T21:44:17.226Z,3.60
2019-04-01T21:46:47.469Z,3.30
2019-04-01T21:49:16.663Z,3.43
2019-04-01T21:51:45.865Z,3.40
2019-04-01T21:54:15.309Z,3.63
2019-04-01T21:56:44.492Z,3.60
2019-04-01T21:59:13.850Z,3.27
2019-04-01T22:01:43.028Z,3.80
2019-04-01T22:04:12.212Z,3.00
2019-04-01T22:06:41.529Z,3.20
2019-04-01T22:09:10.877Z,3.60
2019-04-01T22:11:40.183Z,3.40
2019-04-01T22:14:11.217Z,3.93
2019-04-01T22:16:40.475Z,3.20
2019-04-01T22:19:09.746Z,3.53
2019-04-01T22:21:40.221Z,3.57
2019-04-01T22:24:09.644Z,3.40
2019-04-01T22:26:38.922Z,3.60
2019-04-01T22:29:08.161Z,3.80
2019-04-01T22:31:37.565Z,4.17
2019-04-01T22:34:06.799Z,3.70
2019-04-01T22:36:35.953Z,3.70
2019-04-01T22:39:07.181Z,4.10
2019-04-01T22:41:36.770Z,3.63
2019-04-01T22:44:05.950Z,3.97
2019-04-01T22:46:35.140Z,4.03
2019-04-01T22:49:04.284Z,3.80
2019-04-01T22:51:33.836Z,3.83
2019-04-01T22:54:02.983Z,4.27
2019-04-01T22:56:32.220Z,4.40
2019-04-01T22:59:02.532Z,4.27
2019-04-01T23:01:31.835Z,4.70
2019-04-01T23:04:00.974Z,4.53
2019-04-01T23:06:30.266Z,4.83
2019-04-01T23:09:00.107Z,5.27
2019-04-01T23:11:29.964Z,4.80
2019-04-01T23:14:00.283Z,4.50
2019-04-01T23:16:29.437Z,5.30
2019-04-01T23:18:58.623Z,4.87
2019-04-01T23:21:27.805Z,5.50
2019-04-01T23:23:57.204Z,5.23
2019-04-01T23:26:26.724Z,5.07
2019-04-01T23:28:55.860Z,5.80
2019-04-01T23:31:25.156Z,5.20
2019-04-01T23:33:54.298Z,5.70
2019-04-01T23:36:23.457Z,5.33
2019-04-01T23:38:52.638Z,5.43
2019-04-01T23:41:21.804Z,6.00
2019-04-01T23:43:50.978Z,5.33
2019-04-01T23:46:21.826Z,5.70
2019-04-01T23:48:52.499Z,5.90
2019-04-01T23:51:21.732Z,5.77
2019-04-01T23:53:51.996Z,6.37
2019-04-01T23:56:21.324Z,6.07
2019-04-01T23:58:51.193Z,5.90
